Time;durP1;ratioP1;P1;durP2;ratioP2;P2;SDS_P1;SDS_P2;PMS_P1;PMS_P2;Temp;Humidity;BMP_temperature;BMP_pressure;BME280_temperature;BME280_humidity;BME280_pressure;Samples;Min_cycle;Max_cycle;Signal;HPM_P1;HPM_P2
2022/09/08 00:00:13;;;;;;;19.90;18.05;;;19.70;99.90;;;18.30;80.30;99916.88;10342552;28;96522;-89
2022/09/08 00:05:22;;;;;;;20.33;18.45;;;19.70;99.90;;;18.34;80.16;99922.63;10356449;28;97384;-89
2022/09/08 00:10:25;;;;;;;19.50;17.60;;;19.70;99.90;;;18.34;80.25;99917.22;10358616;28;97198;-90
2022/09/08 00:15:28;;;;;;;18.30;16.65;;;19.70;99.90;;;18.34;80.36;99909.97;10322233;28;96656;-89
2022/09/08 00:20:31;;;;;;;20.90;18.85;;;19.80;99.90;;;18.38;80.30;99913.88;10339465;28;96668;-91
2022/09/08 00:25:34;;;;;;;19.65;17.70;;;19.80;99.90;;;18.34;80.69;99895.72;10355976;28;96920;-89
2022/09/08 00:30:37;;;;;;;18.92;17.13;;;19.80;99.90;;;18.33;80.46;99892.22;10326498;28;97170;-89
2022/09/08 00:35:44;;;;;;;18.75;17.05;;;19.80;99.90;;;18.22;80.48;99881.38;10355157;28;96559;-89
2022/09/08 00:40:49;;;;;;;19.38;17.63;;;19.70;99.90;;;18.16;80.34;99883.91;10349753;28;98317;-89
2022/09/08 00:45:52;;;;;;;19.92;17.95;;;19.60;99.90;;;18.13;80.30;99886.25;10340984;28;97578;-89
2022/09/08 00:50:58;;;;;;;21.20;19.20;;;19.60;99.90;;;18.08;80.62;99886.09;10328484;28;97456;-90
2022/09/08 00:56:05;;;;;;;19.95;18.15;;;19.50;99.90;;;18.02;80.54;99887.00;10355462;28;96478;-90
2022/09/08 01:01:08;;;;;;;18.52;16.83;;;19.50;99.90;;;17.90;80.91;99878.84;10352426;28;96897;-90
2022/09/08 01:17:33;;;;;;;20.80;18.73;;;19.20;99.90;;;17.66;82.21;99875.16;10356712;28;98374;-90
2022/09/08 01:23:13;;;;;;;21.80;19.75;;;19.10;99.90;;;17.64;82.35;99880.75;10356666;28;96550;-90
2022/09/08 01:28:32;;;;;;;20.52;18.63;;;19.00;99.90;;;17.59;82.25;99867.16;10354009;28;96876;-90
2022/09/08 01:33:38;;;;;;;19.73;17.77;;;19.00;99.90;;;17.59;82.16;99869.84;10352387;28;97597;-90
2022/09/08 01:38:42;;;;;;;18.90;17.10;;;19.00;99.90;;;17.55;82.31;99865.94;10339116;28;96616;-89
2022/09/08 01:43:45;;;;;;;20.45;18.60;;;19.00;99.90;;;17.45;82.41;99859.41;10323125;28;96551;-89
2022/09/08 01:48:49;;;;;;;20.70;18.60;;;19.00;99.90;;;17.42;83.05;99874.13;10338329;28;96542;-89
2022/09/08 01:53:52;;;;;;;19.77;17.88;;;18.90;99.90;;;17.39;83.07;99864.66;10355125;28;96982;-90
2022/09/08 01:58:55;;;;;;;21.08;19.13;;;18.80;99.90;;;17.37;82.95;99860.53;10335628;28;98255;-89
2022/09/08 02:03:58;;;;;;;19.60;17.50;;;18.80;99.90;;;17.34;83.19;99866.38;10338495;28;96819;-89
2022/09/08 02:09:01;;;;;;;20.45;18.35;;;18.80;99.90;;;17.28;83.17;99862.69;10354167;28;96594;-89
2022/09/08 02:14:04;;;;;;;19.55;17.58;;;18.70;99.90;;;17.23;83.36;99854.47;10350510;28;97506;-89
2022/09/08 02:19:07;;;;;;;22.92;20.73;;;18.60;99.90;;;17.10;83.73;99851.91;10353821;28;96810;-89
2022/09/08 02:24:10;;;;;;;20.95;19.00;;;18.60;99.90;;;17.08;83.69;99865.50;10337477;28;96639;-90
2022/09/08 02:29:13;;;;;;;22.55;20.23;;;18.60;99.90;;;17.05;84.18;99867.81;10353648;28;96733;-90
2022/09/08 02:34:16;;;;;;;23.67;21.27;;;18.50;99.90;;;17.00;83.90;99863.09;10353514;28;99701;-90
2022/09/08 02:39:20;;;;;;;23.00;20.83;;;18.50;99.90;;;16.97;84.27;99866.25;10337711;28;96855;-89
2022/09/08 02:44:23;;;;;;;22.35;20.25;;;18.40;99.90;;;16.91;84.41;99850.16;10340128;28;97779;-90
2022/09/08 02:49:26;;;;;;;22.17;20.08;;;18.40;99.90;;;16.91;84.72;99858.22;10358650;28;96562;-89
2022/09/08 02:54:29;;;;;;;22.65;20.38;;;18.30;99.90;;;16.87;84.86;99851.66;10342455;28;96671;-89
2022/09/08 02:59:32;;;;;;;22.52;20.33;;;18.30;99.90;;;16.84;85.09;99853.72;10301006;28;96849;-89
2022/09/08 03:04:35;;;;;;;23.10;20.90;;;18.30;99.90;;;16.83;85.24;99852.06;10338715;28;96781;-90
2022/09/08 03:09:39;;;;;;;23.52;21.13;;;18.30;99.90;;;16.79;85.33;99850.88;10356803;28;97437;-89
2022/09/08 03:14:41;;;;;;;22.10;19.83;;;18.30;99.90;;;16.79;84.98;99855.41;10343151;28;96604;-89
2022/09/08 03:19:44;;;;;;;23.70;21.20;;;18.30;99.90;;;16.73;85.30;99857.13;10358647;28;96575;-89
2022/09/08 03:24:48;;;;;;;21.55;19.42;;;18.20;99.90;;;16.68;85.57;99859.59;10343636;28;98097;-89
2022/09/08 03:29:54;;;;;;;21.83;19.65;;;18.20;99.90;;;16.62;85.60;99849.72;10342009;28;96644;-89
2022/09/08 03:34:57;;;;;;;22.08;19.88;;;18.10;99.90;;;16.56;85.80;99851.41;10342247;28;96663;-89
2022/09/08 03:40:02;;;;;;;22.67;20.38;;;18.10;99.90;;;16.51;86.06;99853.09;10340521;28;96507;-90
2022/09/08 03:45:11;;;;;;;21.52;19.27;;;18.00;99.90;;;16.48;86.06;99866.91;10357826;28;96569;-88
2022/09/08 03:50:16;;;;;;;25.27;18.95;;;17.90;99.90;;;16.44;86.52;99866.53;10358591;28;96565;-89
2022/09/08 03:55:19;;;;;;;21.65;19.42;;;17.90;99.90;;;16.43;86.43;99872.91;10358329;28;98311;-90
2022/09/08 04:00:22;;;;;;;22.67;20.38;;;17.90;99.90;;;16.42;86.59;99881.16;10340314;28;96689;-90
2022/09/08 04:05:25;;;;;;;20.48;18.55;;;17.90;99.90;;;16.45;86.54;99883.44;10341514;28;96629;-90
2022/09/08 04:10:29;;;;;;;22.10;19.38;;;17.90;99.90;;;16.40;86.61;99867.16;10336837;28;98539;-90
2022/09/08 04:15:32;;;;;;;21.17;18.95;;;17.90;99.90;;;16.41;86.62;99888.41;10353811;28;96592;-91
2022/09/08 04:20:35;;;;;;;22.58;19.60;;;17.90;99.90;;;16.40;87.06;99896.66;10335954;28;98812;-88
2022/09/08 04:25:38;;;;;;;21.23;19.25;;;17.90;99.90;;;16.45;87.18;99888.81;10341491;28;97677;-88
2022/09/08 04:30:41;;;;;;;20.65;18.55;;;17.90;99.90;;;16.48;87.15;99874.94;10355411;28;96886;-88
2022/09/08 04:35:44;;;;;;;20.77;18.45;;;17.90;99.90;;;16.52;87.29;99877.00;10359290;28;96456;-88
2022/09/08 04:40:47;;;;;;;21.48;19.38;;;18.00;99.90;;;16.55;87.37;99871.22;10339210;28;96592;-88
2022/09/08 04:45:49;;;;;;;20.55;18.38;;;18.00;99.90;;;16.62;87.75;99887.28;10357849;28;98483;-87
2022/09/08 04:50:52;;;;;;;18.52;16.63;;;18.10;99.90;;;16.72;87.72;99876.91;10362509;28;96766;-88
2022/09/08 04:55:55;;;;;;;20.65;18.60;;;18.20;99.90;;;16.84;87.58;99883.22;10390146;28;98469;-88
2022/09/08 05:01:14;;;;;;;22.23;17.92;;;18.30;99.90;;;17.01;87.36;99886.22;10378134;28;97503;-88
2022/09/08 05:06:17;;;;;;;20.40;18.20;;;18.40;99.90;;;17.15;87.47;99878.06;10372197;28;96495;-87
2022/09/08 05:11:23;;;;;;;18.98;17.05;;;18.50;99.90;;;17.26;87.17;99875.50;10340816;28;97498;-88
2022/09/08 05:16:28;;;;;;;19.73;17.63;;;18.70;99.90;;;17.43;86.58;99883.81;10373253;28;96662;-88
2022/09/08 05:21:34;;;;;;;17.23;15.50;;;18.90;99.90;;;17.55;86.25;99887.44;10355532;28;96772;-88
2022/09/08 05:26:37;;;;;;;18.02;16.13;;;19.00;99.90;;;17.67;85.44;99891.03;10349801;28;97505;-88
2022/09/08 05:31:39;;;;;;;17.88;16.08;;;19.10;99.90;;;17.82;84.43;99897.97;10340221;28;96560;-88
2022/09/08 05:36:42;;;;;;;16.92;15.32;;;19.20;99.90;;;17.91;84.24;99891.25;10340255;28;96919;-88
2022/09/08 05:41:47;;;;;;;16.40;14.82;;;19.30;99.90;;;18.06;84.00;99893.59;10369289;28;96753;-87
2022/09/08 05:46:50;;;;;;;18.05;16.20;;;19.40;99.90;;;18.15;83.27;99886.84;10345993;28;96542;-88
2022/09/08 05:51:53;;;;;;;16.88;15.27;;;19.60;99.90;;;18.27;82.84;99898.50;10334854;28;98884;-87
2022/09/08 05:56:57;;;;;;;18.30;16.40;;;19.70;99.90;;;18.38;82.47;99886.97;10343761;28;96558;-88
2022/09/08 06:02:00;;;;;;;20.02;16.48;;;19.80;99.90;;;18.52;81.71;99889.50;10368913;28;96647;-88
2022/09/08 06:07:03;;;;;;;18.83;15.63;;;20.00;99.90;;;18.63;81.19;99896.78;10362956;28;96417;-88
2022/09/08 06:12:06;;;;;;;18.05;15.73;;;20.10;99.90;;;18.76;80.87;99893.94;10346593;28;96539;-89
2022/09/08 06:17:10;;;;;;;18.40;16.58;;;20.20;99.90;;;18.86;79.73;99878.06;10356035;28;96462;-90
2022/09/08 06:22:13;;;;;;;16.70;15.10;;;20.30;99.90;;;19.00;79.67;99873.31;10337629;28;97139;-90
2022/09/08 06:27:27;;;;;;;17.23;15.43;;;20.50;99.90;;;19.15;79.45;99860.22;10354347;28;96693;-89
2022/09/08 06:32:53;;;;;;;19.17;15.63;;;20.60;99.90;;;19.32;78.82;99864.94;10339441;28;96683;-89
2022/09/08 06:38:24;;;;;;;17.35;15.38;;;20.70;99.90;;;19.40;77.44;99860.00;10362319;28;96634;-89
2022/09/08 06:43:38;;;;;;;16.38;14.77;;;20.90;99.90;;;19.57;77.41;99845.84;10337870;28;96642;-89
2022/09/08 06:48:41;;;;;;;16.20;14.48;;;21.00;99.90;;;19.69;77.09;99838.59;10340615;28;96413;-89
2022/09/08 06:54:10;;;;;;;15.43;13.93;;;21.20;99.90;;;19.91;76.22;99849.56;10340383;28;96490;-89
2022/09/08 06:59:35;;;;;;;16.25;12.80;;;21.40;99.90;;;20.07;75.23;99838.03;10371776;28;96575;-89
2022/09/08 07:05:29;;;;;;;16.83;12.57;;;21.50;99.90;;;20.23;73.62;99829.22;10361244;28;97140;-89
2022/09/08 07:10:48;;;;;;;14.23;12.80;;;21.70;99.90;;;20.35;72.75;99821.06;10331495;28;96759;-88
2022/09/08 07:16:18;;;;;;;15.48;12.20;;;21.80;99.90;;;20.52;71.66;99819.28;10336728;28;96602;-88
2022/09/08 07:21:35;;;;;;;14.00;11.95;;;22.00;99.90;;;20.68;71.55;99824.94;10351286;28;96575;-89
2022/09/08 07:26:49;;;;;;;13.30;11.90;;;22.10;99.90;;;20.82;71.34;99820.88;10342058;28;96685;-88
2022/09/08 07:31:53;;;;;;;13.02;11.75;;;22.30;99.90;;;20.98;70.74;99813.81;10315308;28;96561;-88
2022/09/08 07:37:23;;;;;;;14.13;12.65;;;22.50;99.90;;;21.12;69.08;99820.56;10297892;28;96509;-90
2022/09/08 07:42:31;;;;;;;14.15;12.38;;;22.60;99.20;;;21.26;68.73;99824.56;10331720;28;96632;-90
2022/09/08 07:48:10;;;;;;;12.95;11.70;;;22.90;99.20;;;21.62;67.64;99831.31;10337909;28;96560;-89
2022/09/08 07:53:31;;;;;;;14.25;11.20;;;23.20;98.50;;;21.89;66.74;99836.84;10348047;28;96397;-90
2022/09/08 07:59:03;;;;;;;11.45;10.25;;;23.40;97.80;;;22.10;66.62;99837.94;10378118;28;96655;-89
2022/09/08 08:04:29;;;;;;;13.95;12.00;;;23.60;97.60;;;22.21;66.17;99838.06;10333250;28;99012;-89
2022/09/08 08:10:01;;;;;;;12.93;11.73;;;23.70;97.20;;;22.27;66.00;99840.56;10359321;28;96558;-90
2022/09/08 08:15:19;;;;;;;12.05;10.95;;;23.80;96.80;;;22.39;66.14;99845.84;10362136;28;96551;-89
2022/09/08 08:20:52;;;;;;;13.88;11.15;;;23.80;96.80;;;22.51;66.28;99848.41;10380669;28;96952;-89
2022/09/08 08:26:22;;;;;;;11.00;9.93;;;23.90;96.70;;;22.65;65.61;99841.50;10346787;28;96543;-90
2022/09/08 08:32:10;;;;;;;12.73;10.27;;;24.10;96.70;;;22.73;64.57;99830.22;10376314;28;96500;-89
2022/09/08 08:37:38;;;;;;;11.98;9.88;;;24.20;96.00;;;22.87;64.80;99830.66;10363035;28;96478;-89
2022/09/08 08:43:15;;;;;;;18.90;10.32;;;24.30;95.60;;;23.06;63.84;99826.47;10359069;28;96759;-91
2022/09/08 08:48:24;;;;;;;11.25;9.70;;;24.50;95.40;;;23.21;62.87;99832.00;10346650;28;96607;-90
2022/09/08 08:53:45;;;;;;;10.07;9.13;;;24.70;94.70;;;23.35;62.39;99826.94;10367916;28;98522;-90
2022/09/08 08:59:53;;;;;;;12.00;10.20;;;24.80;94.40;;;23.63;61.53;99816.81;10351953;28;97514;-90
2022/09/08 09:05:39;;;;;;;9.98;8.98;;;25.10;94.00;;;23.85;60.70;99803.94;10319914;28;96591;-91
2022/09/08 09:11:02;;;;;;;14.52;10.00;;;25.30;93.20;;;;;;10334991;28;96405;-91
2022/09/08 09:16:46;;;;;;;12.30;9.88;;;25.50;92.60;;;24.14;58.44;99779.88;10318319;28;96608;-91
2022/09/08 09:22:24;;;;;;;16.08;9.60;;;25.60;91.90;;;24.32;58.35;99775.03;10355923;28;96649;-91
2022/09/08 09:27:42;;;;;;;13.23;9.60;;;25.80;91.80;;;24.52;57.79;99766.94;10316213;28;96631;-89
2022/09/08 09:33:15;;;;;;;11.75;9.18;;;26.00;91.20;;;24.68;57.26;99765.06;10320021;28;96462;-91
2022/09/08 09:38:50;;;;;;;10.48;9.48;;;26.20;90.80;;;24.78;57.20;99763.16;10356099;28;96575;-91
2022/09/08 09:44:31;;;;;;;12.70;8.77;;;26.30;90.20;;;25.05;56.52;99762.91;10358798;28;96514;-90
2022/09/08 09:49:52;;;;;;;14.68;9.27;;;26.50;90.10;;;25.30;55.56;99753.06;10356440;28;98457;-89
2022/09/08 09:55:27;;;;;;;12.75;8.40;;;26.70;88.60;;;25.53;55.58;99744.28;10366077;28;96604;-90
2022/09/08 10:01:06;;;;;;;15.93;8.68;;;27.00;88.00;;;25.75;54.83;99726.84;10364592;28;96836;-91
2022/09/08 10:06:36;;;;;;;9.10;7.55;;;27.30;87.00;;;26.04;53.76;99718.78;10361460;28;96499;-90
2022/09/08 10:12:21;;;;;;;10.55;7.93;;;27.50;85.30;;;26.40;53.15;99706.59;10344778;28;97266;-90
2022/09/08 10:17:43;;;;;;;9.98;7.90;;;27.80;84.50;;;26.67;51.57;99708.78;10362371;28;96574;-90
2022/09/08 10:23:24;;;;;;;9.75;7.78;;;28.20;82.30;;;27.03;51.16;99707.66;10373875;28;97052;-90
2022/09/08 10:29:16;;;;;;;9.38;6.90;;;28.50;81.30;;;27.30;50.21;99682.56;10376161;28;96609;-91
2022/09/08 10:34:31;;;;;;;8.07;7.22;;;28.70;79.90;;;27.66;49.88;99680.22;10357530;28;97239;-90
2022/09/08 10:40:15;;;;;;;12.10;7.32;;;29.00;79.20;;;28.00;49.07;99688.22;10353648;28;96924;-90
2022/09/08 10:45:42;;;;;;;9.18;6.20;;;29.40;78.30;;;28.20;47.50;99689.84;10319603;28;96589;-89
2022/09/08 10:50:54;;;;;;;9.13;6.28;;;29.70;75.50;;;28.56;47.54;99700.22;10371363;28;96575;-90
2022/09/08 10:56:29;;;;;;;10.35;5.57;;;30.10;74.60;;;29.17;46.22;99697.22;10352794;28;96657;-89
2022/09/08 11:01:56;;;;;;;6.13;4.93;;;30.80;73.50;;;29.83;44.39;99673.97;10337501;28;96552;-90
2022/09/08 11:07:27;;;;;;;9.10;5.30;;;31.60;68.80;;;30.38;42.64;99673.78;10339157;28;96578;-90
2022/09/08 11:13:02;;;;;;;7.05;4.63;;;32.30;67.00;;;30.89;41.42;99658.81;10353337;28;96637;-90
2022/09/08 11:18:42;;;;;;;7.38;3.80;;;32.80;64.20;;;31.55;40.83;99667.13;10351521;28;97494;-89
2022/09/08 11:24:42;;;;;;;4.57;3.33;;;33.30;63.90;;;32.39;38.53;99670.59;10312198;28;96704;-90
2022/09/08 11:30:11;;;;;;;4.80;4.07;;;33.90;61.00;;;32.72;37.84;99677.13;10351846;28;96576;-91
2022/09/08 11:35:42;;;;;;;5.00;3.85;;;34.00;60.90;;;32.81;37.50;99663.34;10352760;28;96640;-90
2022/09/08 11:41:23;;;;;;;5.07;2.92;;;34.00;60.00;;;32.80;36.80;99680.16;10360112;28;96639;-91
2022/09/08 11:47:16;;;;;;;3.58;2.92;;;33.90;58.80;;;32.58;36.87;99670.22;10376928;28;96512;-90
2022/09/08 11:52:39;;;;;;;6.72;3.40;;;33.80;58.10;;;31.83;37.92;99664.09;10374240;28;96688;-91
2022/09/08 11:58:25;;;;;;;8.05;3.17;;;33.20;58.50;;;31.42;39.00;99662.53;10360705;28;96529;-89
2022/09/08 12:03:48;;;;;;;4.50;3.03;;;32.70;59.20;;;31.07;38.98;99662.44;10375503;28;96712;-90
2022/09/08 12:09:27;;;;;;;4.18;2.70;;;32.40;59.00;;;30.87;39.73;99668.44;10308850;28;96697;-89
2022/09/08 12:14:51;;;;;;;6.83;2.50;;;32.20;59.90;;;30.75;39.73;99673.72;10332631;28;96924;-90
2022/09/08 12:20:22;;;;;;;4.35;2.70;;;32.10;59.70;;;30.47;40.19;99659.31;10359809;28;97714;-89
2022/09/08 12:26:05;;;;;;;5.18;2.75;;;31.80;60.10;;;30.10;41.23;99645.69;10317441;28;96435;-89
2022/09/08 12:31:32;;;;;;;5.90;2.83;;;31.50;61.00;;;29.82;41.22;99635.94;10335317;28;97498;-89
2022/09/08 12:36:46;;;;;;;9.82;2.45;;;31.30;60.90;;;29.73;41.63;99644.06;10356331;28;96437;-90
2022/09/08 12:42:05;;;;;;;8.18;2.03;;;31.10;61.50;;;29.69;41.44;99640.34;10342795;28;96584;-89
2022/09/08 12:47:32;;;;;;;6.25;1.90;;;31.00;60.80;;;29.70;42.13;99630.19;10357417;28;97422;-89
2022/09/08 12:53:25;;;;;;;5.60;2.20;;;31.10;61.50;;;29.83;42.00;99610.19;10339324;28;96626;-91
2022/09/08 12:58:40;;;;;;;4.93;1.83;;;31.10;61.30;;;29.78;41.44;99608.34;10366300;28;96997;-93
2022/09/08 13:03:43;;;;;;;5.75;2.13;;;31.10;61.10;;;29.71;41.06;99609.91;10344577;28;96634;-91
2022/09/08 13:08:58;;;;;;;4.05;1.70;;;31.00;60.70;;;29.61;41.54;99607.41;10332010;28;98531;-91
2022/09/08 13:14:21;;;;;;;4.85;1.90;;;30.90;60.70;;;29.43;41.72;99604.47;10371616;28;98498;-91
2022/09/08 13:19:37;;;;;;;3.97;1.83;;;30.80;60.80;;;29.30;41.85;99588.88;10341732;28;96608;-92
2022/09/08 13:25:05;;;;;;;4.55;1.70;;;30.70;61.00;;;29.21;41.83;99575.13;10357174;28;96664;-91
2022/09/08 13:30:17;;;;;;;5.90;1.92;;;30.60;61.00;;;29.13;41.57;99572.28;10364656;28;96638;-91
2022/09/08 13:36:09;;;;;;;9.02;2.30;;;30.40;60.70;;;29.04;42.01;99567.53;10358119;28;96621;-91
2022/09/08 13:41:39;;;;;;;6.63;1.90;;;30.40;61.10;;;28.97;41.89;99567.16;10359003;28;96588;-92
2022/09/08 13:47:09;;;;;;;5.50;2.20;;;30.30;60.80;;;28.81;41.67;99563.06;10354145;28;96666;-91
2022/09/08 13:52:33;;;;;;;6.57;1.85;;;30.10;60.70;;;28.69;42.86;99568.22;10353760;28;96988;-91
2022/09/08 13:58:26;;;;;;;9.80;2.08;;;30.00;61.50;;;28.57;42.69;99559.72;10368604;28;98739;-90
2022/09/08 14:03:37;;;;;;;10.85;2.20;;;29.80;61.30;;;28.42;42.81;99558.06;10366819;28;97599;-93
2022/09/08 14:09:12;;;;;;;6.05;1.83;;;29.70;61.50;;;28.23;43.11;99566.31;10335905;28;96828;-90
2022/09/08 14:14:15;;;;;;;10.05;2.40;;;29.60;61.50;;;28.08;43.20;99552.94;10353610;28;96522;-91
2022/09/08 14:19:44;;;;;;;6.57;2.40;;;29.40;61.80;;;27.93;44.10;99545.78;10349400;28;96969;-91
2022/09/08 14:24:59;;;;;;;7.23;2.10;;;29.20;62.30;;;27.77;44.92;99555.31;10332061;28;96484;-91
2022/09/08 14:30:14;;;;;;;5.10;1.85;;;29.10;63.10;;;27.48;46.50;99594.50;10357456;28;96592;-94
2022/09/08 14:35:42;;;;;;;13.27;3.20;;;28.80;66.80;;;26.22;55.29;99578.44;10372228;28;96488;-93
2022/09/08 14:41:27;;;;;;;12.57;4.10;;;27.80;78.50;;;24.13;62.13;99569.25;10400515;28;96654;-96
2022/09/08 14:47:00;;;;;;;8.02;3.72;;;25.80;84.80;;;22.51;70.60;99638.03;10361347;28;96700;-92
2022/09/08 14:52:25;;;;;;;4.80;2.95;;;24.10;91.60;;;21.68;74.24;99623.19;10343885;28;96682;-95
2022/09/08 14:57:39;;;;;;;8.77;3.72;;;23.20;92.80;;;21.21;78.61;99623.69;10344294;28;96587;-96
2022/09/08 15:02:58;;;;;;;8.63;3.75;;;22.60;96.90;;;21.06;82.79;99621.63;10385157;28;96439;-96
2022/09/08 15:08:16;;;;;;;8.55;4.00;;;22.40;99.90;;;20.97;85.25;99605.03;10393123;28;96427;-96
2022/09/08 15:13:29;;;;;;;9.85;4.80;;;22.30;99.90;;;20.90;87.28;99609.81;10409714;28;96516;-96
2022/09/08 15:19:23;;;;;;;8.82;4.55;;;22.20;99.90;;;20.88;89.04;99597.63;10376756;28;97254;-96
2022/09/08 15:24:46;;;;;;;9.23;3.95;;;22.20;99.90;;;20.89;90.83;99599.25;10348977;28;96488;-96
2022/09/08 15:29:56;;;;;;;5.72;4.68;;;22.10;99.90;;;20.88;92.55;99620.06;10371526;28;96417;-96
2022/09/08 15:35:49;;;;;;;6.28;4.55;;;22.10;99.90;;;20.86;93.77;99605.97;10363364;28;96753;-94
2022/09/08 15:41:25;;;;;;;9.77;5.53;;;22.10;99.90;;;20.91;95.07;99614.13;10359095;28;96510;-94
2022/09/08 15:47:05;;;;;;;10.93;5.22;;;22.10;99.90;;;20.94;96.06;99605.53;10355974;28;96474;-96
2022/09/08 15:52:55;;;;;;;8.38;4.55;;;22.10;99.90;;;20.98;96.93;99614.75;10393109;28;96465;-95
2022/09/08 15:58:41;;;;;;;9.23;5.30;;;22.20;99.90;;;21.03;97.50;99611.31;10383944;28;96678;-96
2022/09/08 16:04:00;;;;;;;6.88;4.07;;;22.30;99.90;;;21.10;98.17;99612.75;10391555;28;95845;-96
2022/09/08 16:09:12;;;;;;;6.70;4.57;;;22.30;99.90;;;21.18;99.19;99613.41;10378173;28;96688;-96
2022/09/08 16:14:41;;;;;;;9.05;4.15;;;22.40;99.90;;;21.18;99.51;99611.53;10370533;28;96301;-96
2022/09/08 16:20:20;;;;;;;7.65;4.25;;;22.40;99.90;;;21.10;99.81;99604.66;10376787;28;96647;-96
2022/09/08 16:25:58;;;;;;;7.85;3.90;;;22.30;99.90;;;21.06;100.00;99600.84;10377589;28;96597;-96
2022/09/08 16:36:27;;;;;;;7.15;4.35;;;22.20;99.90;;;20.92;100.00;99604.97;10279241;28;97225;-80
2022/09/08 16:42:13;;;;;;;7.28;4.25;;;22.20;99.90;;;20.90;100.00;99607.09;10316339;28;96489;-80
2022/09/08 16:47:21;;;;;;;8.30;4.82;;;22.20;99.90;;;20.89;100.00;99597.38;10255377;28;96667;-81
2022/09/08 16:52:40;;;;;;;5.93;4.43;;;22.20;99.90;;;20.84;100.00;99613.50;10275875;28;97482;-79
2022/09/08 16:58:16;;;;;;;6.82;4.55;;;22.20;99.90;;;20.73;100.00;99612.53;10307075;28;99206;-79
2022/09/08 17:03:44;;;;;;;9.98;4.32;;;22.10;99.90;;;20.68;100.00;99593.56;10305881;28;96658;-80
2022/09/08 17:08:48;;;;;;;9.60;4.28;;;21.90;99.90;;;20.64;100.00;99587.03;10274631;28;98401;-79
2022/09/08 17:13:51;;;;;;;9.73;4.63;;;21.90;99.90;;;20.58;100.00;99579.94;10297570;28;96700;-79
2022/09/08 17:19:22;;;;;;;6.20;4.93;;;21.90;99.90;;;20.59;100.00;99592.38;10291101;28;97505;-79
2022/09/08 17:25:17;;;;;;;8.90;4.13;;;21.90;99.90;;;20.61;100.00;99584.00;10299330;28;96619;-80
2022/09/08 17:30:21;;;;;;;6.00;4.35;;;21.90;99.90;;;20.60;100.00;99574.28;10308086;28;96831;-80
2022/09/08 17:35:53;;;;;;;6.72;4.75;;;21.90;99.90;;;20.56;100.00;99590.97;10291888;28;97544;-79
2022/09/08 17:41:14;;;;;;;7.60;5.13;;;21.90;99.90;;;20.55;100.00;99619.03;10273851;28;96691;-79
2022/09/08 17:46:48;;;;;;;7.53;4.90;;;21.90;99.90;;;20.55;100.00;99618.22;10291605;28;97187;-79
2022/09/08 17:52:17;;;;;;;7.80;5.28;;;21.90;99.90;;;20.55;100.00;99627.13;10291968;28;96544;-79
2022/09/08 17:57:26;;;;;;;7.20;4.20;;;21.90;99.90;;;20.50;100.00;99640.53;10292890;28;98328;-79
2022/09/08 18:03:12;;;;;;;6.75;4.63;;;21.80;99.90;;;20.43;100.00;99645.25;10319240;28;97467;-80
2022/09/08 18:08:21;;;;;;;8.93;4.70;;;21.70;99.90;;;20.37;100.00;99645.44;10289715;28;96624;-79
2022/09/08 18:13:34;;;;;;;7.65;5.32;;;21.60;99.90;;;20.32;100.00;99632.66;10277810;28;96878;-79
2022/09/08 18:18:41;;;;;;;7.45;4.80;;;21.60;99.90;;;20.28;100.00;99636.94;10286799;28;98304;-78
2022/09/08 18:23:51;;;;;;;7.78;4.78;;;21.60;99.90;;;20.22;100.00;99654.09;10288467;28;97161;-80
2022/09/08 18:29:00;;;;;;;6.47;4.50;;;21.50;99.90;;;20.18;100.00;99659.16;10305553;28;97117;-85
2022/09/08 18:34:38;;;;;;;10.10;4.88;;;21.40;99.90;;;20.15;100.00;99658.81;10284504;28;96665;-84
2022/09/08 18:40:13;;;;;;;7.68;4.32;;;21.40;99.90;;;20.13;100.00;99682.53;10288883;28;97000;-84
2022/09/08 18:45:16;;;;;;;6.30;3.92;;;21.40;99.90;;;20.11;100.00;99690.88;10277964;28;96716;-85
2022/09/08 18:50:46;;;;;;;6.38;4.07;;;21.40;99.90;;;20.11;100.00;99692.75;10292368;28;97840;-84
2022/09/08 18:56:02;;;;;;;8.27;3.77;;;21.40;99.90;;;20.10;100.00;99697.31;10289564;28;97308;-85
2022/09/08 19:02:18;;;;;;;8.70;4.20;;;21.40;99.90;;;20.04;100.00;99684.81;10300574;28;98080;-89
2022/09/08 19:07:40;;;;;;;7.85;4.57;;;21.40;99.90;;;19.92;100.00;99690.25;10247364;28;96766;-88
2022/09/08 19:13:28;;;;;;;10.02;5.55;;;21.20;99.90;;;19.78;100.00;99711.28;10272628;28;97231;-88
2022/09/08 19:18:46;;;;;;;8.63;6.57;;;21.10;99.90;;;19.65;100.00;99729.59;10268756;28;96696;-88
2022/09/08 19:24:03;;;;;;;11.25;7.57;;;20.90;99.90;;;19.56;100.00;99731.84;10287704;28;96470;-87
2022/09/08 19:29:39;;;;;;;16.13;8.30;;;20.90;99.90;;;19.48;100.00;99726.78;10281319;28;96577;-89
2022/09/08 19:35:03;;;;;;;10.00;8.32;;;20.80;99.90;;;19.41;100.00;99713.44;10270872;28;98015;-88
2022/09/08 19:40:30;;;;;;;10.98;8.43;;;20.70;99.90;;;19.37;100.00;99725.78;10277996;28;97489;-88
2022/09/08 19:45:56;;;;;;;10.45;8.88;;;20.70;99.90;;;19.33;100.00;99726.47;10284448;28;97255;-87
2022/09/08 19:51:29;;;;;;;10.02;8.98;;;20.60;99.90;;;19.30;100.00;99727.75;10295429;28;97410;-86
2022/09/08 19:56:40;;;;;;;9.27;8.38;;;20.60;99.90;;;19.29;100.00;99731.50;10252743;28;96675;-81
2022/09/08 20:01:52;;;;;;;;;;;20.60;99.90;;;19.31;100.00;99720.50;10309527;28;96635;-79
2022/09/08 20:07:09;;;;;;;8.75;7.55;;;20.60;99.90;;;19.30;100.00;99733.16;10295725;28;96732;-81
2022/09/08 20:12:26;;;;;;;8.13;7.30;;;20.70;99.90;;;19.33;100.00;99761.50;10296409;28;98504;-82
2022/09/08 20:17:33;;;;;;;9.90;7.03;;;20.70;99.90;;;19.33;100.00;99754.25;10289694;28;97574;-83
2022/09/08 20:23:17;;;;;;;6.72;5.95;;;20.70;99.90;;;19.25;100.00;99747.34;10293860;28;96680;-83
2022/09/08 20:29:08;;;;;;;6.10;5.50;;;20.70;99.90;;;19.28;100.00;99740.66;10275895;28;96710;-83
2022/09/08 20:34:41;;;;;;;7.72;5.78;;;20.60;99.90;;;19.26;100.00;99742.78;10321093;28;96694;-83
2022/09/08 20:40:16;;;;;;;6.85;6.15;;;20.60;99.90;;;19.27;100.00;99755.19;10287018;28;97351;-83
2022/09/08 20:45:40;;;;;;;7.95;6.47;;;20.70;99.90;;;19.29;100.00;99769.22;10293469;28;97242;-83
2022/09/08 20:51:10;;;;;;;7.80;6.55;;;20.70;99.90;;;19.31;100.00;99787.84;10299901;28;97465;-83
2022/09/08 20:56:24;;;;;;;4.50;3.80;;;20.70;99.90;;;19.25;100.00;99800.38;10284553;28;96705;-84
2022/09/08 21:01:37;;;;;;;8.40;4.22;;;20.70;99.90;;;19.08;100.00;99783.28;10319278;28;97485;-83
2022/09/08 21:06:43;;;;;;;7.30;5.47;;;20.50;99.90;;;18.82;100.00;99781.84;10292673;28;96544;-82
2022/09/08 21:11:48;;;;;;;6.78;6.07;;;20.30;99.90;;;18.65;100.00;99828.25;10284326;28;96706;-82
2022/09/08 21:17:21;;;;;;;8.30;6.00;;;20.10;99.90;;;18.55;100.00;99860.28;10320310;28;98301;-81
2022/09/08 21:23:00;;;;;;;9.48;6.43;;;19.90;99.90;;;18.46;100.00;99807.81;10293669;28;97199;-81
2022/09/08 21:28:21;;;;;;;7.50;5.65;;;19.90;99.90;;;18.43;100.00;99803.72;10280974;28;96757;-82
2022/09/08 21:33:36;;;;;;;;;;;19.90;99.90;;;18.43;100.00;99824.44;10294202;28;96754;-81
2022/09/08 21:38:48;;;;;;;7.80;5.55;;;19.90;99.90;;;18.40;100.00;99849.91;10290038;28;96655;-80
2022/09/08 21:44:13;;;;;;;8.00;6.45;;;19.90;99.90;;;18.44;100.00;99844.91;10299208;28;96589;-81
2022/09/08 21:49:24;;;;;;;8.80;5.00;;;19.90;99.90;;;18.36;100.00;99834.47;10270557;28;98348;-81
2022/09/08 21:54:37;;;;;;;6.90;5.15;;;19.90;99.90;;;18.29;100.00;99826.47;10271042;28;97988;-81
2022/09/08 21:59:58;;;;;;;7.13;5.20;;;19.80;99.90;;;18.21;100.00;99832.16;10300616;28;96743;-81
2022/09/08 22:05:14;;;;;;;9.82;4.15;;;19.70;99.90;;;18.04;100.00;99828.44;10294692;28;96652;-81
2022/09/08 22:10:25;;;;;;;6.28;3.80;;;19.50;99.90;;;17.81;100.00;99811.16;10292086;28;98108;-82